createdAt,value
2017-11-11T00:00:00.661Z,5.57
2017-11-11T00:02:27.792Z,6.50
2017-11-11T00:04:54.190Z,5.77
2017-11-11T00:07:20.550Z,6.20
2017-11-11T00:09:46.972Z,5.07
2017-11-11T00:12:13.367Z,5.90
2017-11-11T00:14:39.733Z,5.60
2017-11-11T00:17:06.237Z,6.57
2017-11-11T00:19:33.331Z,4.70
2017-11-11T00:21:59.700Z,5.13
2017-11-11T00:24:26.062Z,4.43
2017-11-11T00:26:52.442Z,4.10
2017-11-11T00:29:18.925Z,4.93
2017-11-11T00:31:45.262Z,5.17
2017-11-11T00:34:13.191Z,4.80
2017-11-11T00:36:40.269Z,3.93
2017-11-11T00:39:06.634Z,5.30
2017-11-11T00:41:32.968Z,4.73
2017-11-11T00:43:59.330Z,4.70
2017-11-11T00:46:26.471Z,4.93
2017-11-11T00:48:52.872Z,4.70
2017-11-11T00:51:19.293Z,5.40
2017-11-11T00:53:46.405Z,4.93
2017-11-11T00:56:12.848Z,4.20
2017-11-11T00:58:39.963Z,4.77
2017-11-11T01:01:06.305Z,5.40
2017-11-11T01:03:32.653Z,5.90
2017-11-11T01:05:59.048Z,5.30
2017-11-11T01:08:25.454Z,7.40
2017-11-11T01:10:51.808Z,5.10
2017-11-11T01:13:18.221Z,4.23
2017-11-11T01:15:44.557Z,5.33
2017-11-11T01:18:10.927Z,3.97
2017-11-11T01:20:38.095Z,5.63
2017-11-11T01:23:04.514Z,4.47
2017-11-11T01:25:30.864Z,5.70
2017-11-11T01:27:57.221Z,4.67
2017-11-11T01:30:24.370Z,5.13
2017-11-11T01:32:50.752Z,4.50
2017-11-11T01:35:17.864Z,4.77
2017-11-11T01:37:44.221Z,4.70
2017-11-11T01:40:10.621Z,4.10
2017-11-11T01:42:36.981Z,5.00
2017-11-11T01:45:03.402Z,5.30
2017-11-11T01:47:30.686Z,5.53
2017-11-11T01:49:58.588Z,6.40
2017-11-11T01:52:25.745Z,5.73
2017-11-11T01:54:52.157Z,5.20
2017-11-11T01:57:18.537Z,5.30
2017-11-11T01:59:44.916Z,4.37
2017-11-11T02:02:12.140Z,4.43
2017-11-11T02:04:38.521Z,4.33
2017-11-11T02:07:05.681Z,4.37
2017-11-11T02:09:32.077Z,4.43
2017-11-11T02:11:59.261Z,4.83
2017-11-11T02:14:25.646Z,4.70
2017-11-11T02:16:52.805Z,4.13
2017-11-11T02:19:19.946Z,4.40
2017-11-11T02:21:46.352Z,3.67
2017-11-11T02:24:12.773Z,5.00
2017-11-11T02:26:39.149Z,4.70
2017-11-11T02:29:05.558Z,4.10
2017-11-11T02:31:31.997Z,4.33
2017-11-11T02:33:58.411Z,3.77
2017-11-11T02:36:25.565Z,3.83
2017-11-11T02:38:52.053Z,4.90
2017-11-11T02:41:18.532Z,5.80
2017-11-11T02:43:44.962Z,4.90
2017-11-11T02:46:11.375Z,3.10
2017-11-11T02:48:37.809Z,4.20
2017-11-11T02:51:04.236Z,3.80
2017-11-11T02:53:30.696Z,4.10
2017-11-11T02:55:57.834Z,4.40
2017-11-11T02:58:24.225Z,4.20
2017-11-11T03:00:50.804Z,4.27
2017-11-11T03:03:17.237Z,4.30
2017-11-11T03:05:43.630Z,4.87
2017-11-11T03:08:10.000Z,5.73
2017-11-11T03:10:36.433Z,4.63
2017-11-11T03:13:03.565Z,4.60
2017-11-11T03:15:29.965Z,4.63
2017-11-11T03:17:56.393Z,4.60
2017-11-11T03:20:22.785Z,6.37
2017-11-11T03:22:49.177Z,4.23
2017-11-11T03:25:15.586Z,5.67
2017-11-11T03:27:41.974Z,4.27
2017-11-11T03:30:09.140Z,4.70
2017-11-11T03:32:36.238Z,4.50
2017-11-11T03:35:02.574Z,4.63
2017-11-11T03:37:28.978Z,3.80
2017-11-11T03:39:55.337Z,4.07
2017-11-11T03:42:21.769Z,3.97
2017-11-11T03:44:48.148Z,3.90
2017-11-11T03:47:14.496Z,4.93
2017-11-11T03:49:41.057Z,4.33
2017-11-11T03:52:08.296Z,3.80
2017-11-11T03:54:34.677Z,2.90
2017-11-11T03:57:01.052Z,3.83
2017-11-11T03:59:27.549Z,3.80
2017-11-11T04:01:53.954Z,3.00
2017-11-11T04:04:20.361Z,3.67
2017-11-11T04:06:47.477Z,3.40
2017-11-11T04:09:13.872Z,3.20
2017-11-11T04:11:40.985Z,4.03
2017-11-11T04:14:07.401Z,3.30
2017-11-11T04:16:33.786Z,3.57
2017-11-11T04:19:00.152Z,3.17
2017-11-11T04:21:26.641Z,3.50
2017-11-11T04:23:52.986Z,3.93
2017-11-11T04:26:19.387Z,4.23
2017-11-11T04:28:47.259Z,3.13
2017-11-11T04:31:14.390Z,3.60
2017-11-11T04:33:40.794Z,3.37
2017-11-11T04:36:07.173Z,3.97
2017-11-11T04:38:33.561Z,3.57
2017-11-11T04:40:59.905Z,4.23
2017-11-11T04:43:27.769Z,3.77
2017-11-11T04:45:54.116Z,3.87
2017-11-11T04:48:21.244Z,3.00
2017-11-11T04:50:47.641Z,2.70
2017-11-11T04:53:14.797Z,3.10
2017-11-11T04:55:41.913Z,3.17
2017-11-11T04:58:08.292Z,3.57
2017-11-11T05:00:34.668Z,3.17
2017-11-11T05:03:01.013Z,2.87
2017-11-11T05:05:27.436Z,3.70
2017-11-11T05:07:54.525Z,3.43
2017-11-11T05:10:20.926Z,6.60
2017-11-11T05:12:47.557Z,2.70
2017-11-11T05:15:13.908Z,3.17
2017-11-11T05:17:40.278Z,3.00
2017-11-11T05:20:06.737Z,5.90
2017-11-11T05:22:33.890Z,3.60
2017-11-11T05:25:01.038Z,4.00
2017-11-11T05:27:28.165Z,3.73
2017-11-11T05:29:54.518Z,3.83
2017-11-11T05:32:20.873Z,6.07
2017-11-11T05:34:47.518Z,3.40
2017-11-11T05:37:14.326Z,2.80
2017-11-11T05:39:40.697Z,3.50
2017-11-11T05:42:07.846Z,3.67
2017-11-11T05:44:34.254Z,3.50
2017-11-11T05:47:01.390Z,4.23
2017-11-11T05:49:27.809Z,4.10
2017-11-11T05:51:55.720Z,4.60
2017-11-11T05:54:22.197Z,3.87
2017-11-11T05:56:48.798Z,4.10
2017-11-11T05:59:15.177Z,5.60
2017-11-11T06:01:42.270Z,7.00
2017-11-11T06:04:08.700Z,3.90
2017-11-11T06:06:35.089Z,3.17
2017-11-11T06:09:01.489Z,4.00
2017-11-11T06:11:28.357Z,4.63
2017-11-11T06:13:54.811Z,3.97
2017-11-11T06:16:21.237Z,4.00
2017-11-11T06:18:47.713Z,3.43
2017-11-11T06:21:14.309Z,3.80
2017-11-11T06:23:40.889Z,3.27
2017-11-11T06:26:07.553Z,3.80
2017-11-11T06:28:35.613Z,3.70
2017-11-11T06:33:55.212Z,3.53
2017-11-11T06:36:25.634Z,4.60
2017-11-11T06:38:53.142Z,3.37
2017-11-11T06:41:20.549Z,3.63
2017-11-11T06:43:47.248Z,3.03
2017-11-11T06:46:13.746Z,5.60
2017-11-11T06:51:16.001Z,4.37
2017-11-11T06:53:43.561Z,3.60
2017-11-11T06:56:10.149Z,3.23
2017-11-11T06:58:40.858Z,3.70
2017-11-11T07:01:10.088Z,3.63
2017-11-11T07:03:40.240Z,3.33
2017-11-11T07:06:07.449Z,5.20
2017-11-11T07:08:34.990Z,5.27
2017-11-11T07:11:02.013Z,3.13
2017-11-11T07:13:28.532Z,4.43
2017-11-11T07:15:55.344Z,4.33
2017-11-11T07:18:22.416Z,5.43
2017-11-11T07:20:51.730Z,3.63
2017-11-11T07:23:18.291Z,2.73
2017-11-11T07:25:47.436Z,3.60
2017-11-11T07:28:15.624Z,3.10
2017-11-11T07:30:43.076Z,4.40
2017-11-11T07:33:09.611Z,4.33
2017-11-11T07:35:38.081Z,2.80
2017-11-11T07:38:06.406Z,3.00
2017-11-11T07:40:33.052Z,3.37
2017-11-11T07:43:00.666Z,4.63
2017-11-11T07:45:28.642Z,3.27
2017-11-11T07:47:55.927Z,3.70
2017-11-11T07:50:22.617Z,3.30
2017-11-11T07:52:51.488Z,3.97
2017-11-11T07:55:20.482Z,3.03
2017-11-11T07:57:47.253Z,2.67
2017-11-11T08:00:16.837Z,3.07
2017-11-11T08:02:44.004Z,3.20
2017-11-11T08:05:11.418Z,2.00
2017-11-11T08:07:38.064Z,3.60
2017-11-11T08:10:06.980Z,3.33
2017-11-11T08:12:34.435Z,2.87
2017-11-11T08:15:02.599Z,2.70
2017-11-11T08:17:31.289Z,2.43
2017-11-11T08:20:01.153Z,2.60
2017-11-11T08:22:28.484Z,2.50
2017-11-11T08:24:55.873Z,2.20
2017-11-11T08:27:23.999Z,3.67
2017-11-11T08:29:53.118Z,3.23
2017-11-11T08:32:20.920Z,3.83
2017-11-11T08:34:50.388Z,3.00
2017-11-11T08:37:18.663Z,2.27
2017-11-11T08:39:45.907Z,2.37
2017-11-11T08:42:12.936Z,2.73
2017-11-11T08:44:42.059Z,3.13
2017-11-11T08:47:09.708Z,2.97
2017-11-11T08:49:36.466Z,2.77
2017-11-11T08:52:06.664Z,2.53
2017-11-11T08:54:33.280Z,2.40
2017-11-11T08:57:02.812Z,3.57
2017-11-11T08:59:30.597Z,3.37
2017-11-11T09:01:57.150Z,4.33
2017-11-11T09:04:24.580Z,3.07
2017-11-11T09:06:51.798Z,3.27
2017-11-11T09:09:18.376Z,3.03
2017-11-11T09:11:45.724Z,3.00
2017-11-11T09:14:13.507Z,3.47
2017-11-11T09:16:42.581Z,3.47
2017-11-11T09:19:11.070Z,5.50
2017-11-11T09:21:39.279Z,4.20
2017-11-11T09:24:10.471Z,4.27
2017-11-11T09:26:38.548Z,7.77
2017-11-11T09:29:06.705Z,6.40
2017-11-11T09:31:35.220Z,4.70
2017-11-11T09:34:03.484Z,5.73
2017-11-11T09:36:30.916Z,4.00
2017-11-11T09:39:00.755Z,3.90
2017-11-11T09:41:27.259Z,7.83
2017-11-11T09:43:54.513Z,4.60
2017-11-11T09:46:24.509Z,4.23
2017-11-11T09:48:51.662Z,5.50
2017-11-11T09:51:19.359Z,5.90
2017-11-11T09:53:46.705Z,4.80
2017-11-11T09:56:14.602Z,3.77
2017-11-11T09:58:42.268Z,4.00
2017-11-11T10:01:08.751Z,3.80
2017-11-11T10:03:38.606Z,5.83
2017-11-11T10:06:07.608Z,4.07
2017-11-11T10:08:37.195Z,4.43
2017-11-11T10:11:05.230Z,3.13
2017-11-11T10:13:31.860Z,5.20
2017-11-11T10:16:01.927Z,5.10
2017-11-11T10:18:31.129Z,3.40
2017-11-11T10:21:00.228Z,3.30
2017-11-11T10:23:29.525Z,3.63
2017-11-11T10:25:56.382Z,4.10
2017-11-11T10:28:24.734Z,4.60
2017-11-11T10:30:52.164Z,5.23
2017-11-11T10:33:20.316Z,4.50
2017-11-11T10:35:46.801Z,3.80
2017-11-11T10:38:14.045Z,4.00
2017-11-11T10:40:40.654Z,3.93
2017-11-11T10:43:10.168Z,3.77
2017-11-11T10:45:37.927Z,4.40
2017-11-11T10:48:06.052Z,3.60
2017-11-11T10:50:32.626Z,4.77
2017-11-11T10:53:00.566Z,3.03
2017-11-11T10:55:28.096Z,4.20
2017-11-11T10:57:54.713Z,4.70
2017-11-11T11:00:24.259Z,4.80
2017-11-11T11:02:50.829Z,4.00
2017-11-11T11:05:17.412Z,3.90
2017-11-11T11:07:44.945Z,3.73
2017-11-11T11:10:11.461Z,4.50
2017-11-11T11:12:38.057Z,4.43
2017-11-11T11:15:06.015Z,5.00
2017-11-11T11:17:36.284Z,4.43
2017-11-11T11:20:03.520Z,3.63
2017-11-11T11:22:31.691Z,4.03
2017-11-11T11:24:59.872Z,4.27
2017-11-11T11:27:27.141Z,4.40
2017-11-11T11:29:54.737Z,5.27
2017-11-11T11:32:23.454Z,4.17
2017-11-11T11:34:51.363Z,5.50
2017-11-11T11:37:19.631Z,5.00
2017-11-11T11:39:46.305Z,5.40
2017-11-11T11:42:13.004Z,5.20
2017-11-11T11:44:42.078Z,5.20
2017-11-11T11:47:11.846Z,5.23
2017-11-11T11:49:41.831Z,5.10
2017-11-11T11:52:09.365Z,4.63
2017-11-11T11:54:37.688Z,7.10
2017-11-11T11:57:04.917Z,10.80
2017-11-11T11:59:31.411Z,7.53
2017-11-11T12:01:58.737Z,8.10
2017-11-11T12:04:26.236Z,8.30
2017-11-11T12:06:52.741Z,6.67
2017-11-11T12:09:20.193Z,5.20
2017-11-11T12:11:48.325Z,6.80
2017-11-11T12:14:15.014Z,7.40
2017-11-11T12:16:42.948Z,7.00
2017-11-11T12:19:12.199Z,3.93
2017-11-11T12:21:38.732Z,6.20
2017-11-11T12:24:05.256Z,5.47
2017-11-11T12:26:31.734Z,5.57
2017-11-11T12:28:59.073Z,4.30
2017-11-11T12:31:26.824Z,6.93
2017-11-11T12:33:54.062Z,7.23
2017-11-11T12:36:20.569Z,4.77
2017-11-11T12:38:48.487Z,5.40
2017-11-11T12:41:18.017Z,5.47
2017-11-11T12:43:44.437Z,6.00
2017-11-11T12:46:10.949Z,6.87
2017-11-11T12:48:37.622Z,5.00
2017-11-11T12:51:05.236Z,5.63
2017-11-11T12:53:32.769Z,7.10
2017-11-11T12:55:59.314Z,6.90
2017-11-11T12:58:26.741Z,5.23
2017-11-11T13:00:54.076Z,5.50
2017-11-11T13:03:20.672Z,5.90
2017-11-11T13:05:47.986Z,6.03
2017-11-11T13:08:15.429Z,5.33
2017-11-11T13:10:42.070Z,6.23
2017-11-11T13:13:09.335Z,4.53
2017-11-11T13:15:36.519Z,6.50
2017-11-11T13:18:04.972Z,5.83
2017-11-11T13:20:31.612Z,7.73
2017-11-11T13:22:58.227Z,7.23
2017-11-11T13:25:25.564Z,7.73
2017-11-11T13:27:52.757Z,9.63
2017-11-11T13:30:19.468Z,8.57
2017-11-11T13:32:46.068Z,6.70
2017-11-11T13:35:13.624Z,12.07
2017-11-11T13:37:40.247Z,10.60
2017-11-11T13:40:07.688Z,7.63
2017-11-11T13:42:34.311Z,6.20
2017-11-11T13:45:01.499Z,6.30
2017-11-11T13:47:28.516Z,9.00
2017-11-11T13:49:57.224Z,7.67
2017-11-11T13:52:25.337Z,5.70
2017-11-11T13:54:51.904Z,5.90
2017-11-11T13:57:18.548Z,6.00
2017-11-11T13:59:46.388Z,5.63
2017-11-11T14:02:12.953Z,7.10
2017-11-11T14:04:42.154Z,7.10
2017-11-11T14:07:08.787Z,5.93
2017-11-11T14:09:36.394Z,7.13
2017-11-11T14:12:04.556Z,7.60
2017-11-11T14:14:31.193Z,7.57
2017-11-11T14:16:57.850Z,6.53
2017-11-11T14:19:24.444Z,7.07
2017-11-11T14:21:51.002Z,6.37
2017-11-11T14:24:17.718Z,6.30
2017-11-11T14:26:44.321Z,7.67
2017-11-11T14:29:10.955Z,8.00
2017-11-11T14:31:38.332Z,7.20
2017-11-11T14:34:04.952Z,8.37
2017-11-11T14:36:31.484Z,8.10
2017-11-11T14:38:58.072Z,8.10
2017-11-11T14:41:26.225Z,8.23
2017-11-11T14:43:52.783Z,9.97
2017-11-11T14:46:19.416Z,9.80
2017-11-11T14:48:45.925Z,9.90
2017-11-11T14:51:13.153Z,10.00
2017-11-11T14:53:39.692Z,14.10
2017-11-11T14:56:06.873Z,20.40
2017-11-11T14:58:34.153Z,11.60
2017-11-11T15:01:00.750Z,11.60
2017-11-11T15:03:27.296Z,10.80
2017-11-11T15:05:53.861Z,16.07
2017-11-11T15:08:22.748Z,13.60
2017-11-11T15:10:49.336Z,14.77
2017-11-11T15:13:15.835Z,12.73
2017-11-11T15:15:42.432Z,11.60
2017-11-11T15:18:08.932Z,13.17
2017-11-11T15:20:37.320Z,12.37
2017-11-11T15:23:03.869Z,11.57
2017-11-11T15:25:30.462Z,13.50
2017-11-11T15:27:57.602Z,12.93
2017-11-11T15:30:24.208Z,12.57
2017-11-11T15:32:51.536Z,14.50
2017-11-11T15:35:18.108Z,12.37
2017-11-11T15:37:44.749Z,17.13
2017-11-11T15:40:11.279Z,17.07
2017-11-11T15:42:37.855Z,15.80
2017-11-11T15:45:04.490Z,16.50
2017-11-11T15:47:31.995Z,16.30
2017-11-11T15:50:00.355Z,15.27
2017-11-11T15:52:28.006Z,14.73
2017-11-11T15:54:54.632Z,13.30
2017-11-11T15:57:23.539Z,14.00
2017-11-11T15:59:53.260Z,13.27
2017-11-11T16:02:21.477Z,14.50
2017-11-11T16:04:48.975Z,14.40
2017-11-11T16:07:18.539Z,14.47
2017-11-11T16:09:47.496Z,14.30
2017-11-11T16:12:15.847Z,15.40
2017-11-11T16:14:43.469Z,16.10
2017-11-11T16:17:09.966Z,14.90
2017-11-11T16:19:36.465Z,15.20
2017-11-11T16:22:03.015Z,15.40
2017-11-11T16:24:30.698Z,15.30
2017-11-11T16:26:57.169Z,15.17
2017-11-11T16:29:23.668Z,16.77
2017-11-11T16:31:50.137Z,18.07
2017-11-11T16:34:16.624Z,15.87
2017-11-11T16:36:43.088Z,15.30
2017-11-11T16:39:09.529Z,16.30
2017-11-11T16:41:35.984Z,17.93
2017-11-11T16:44:02.530Z,17.03
2017-11-11T16:49:06.592Z,16.73
2017-11-11T16:51:32.979Z,18.07
2017-11-11T16:53:59.400Z,20.47
2017-11-11T16:56:25.828Z,19.73
2017-11-11T16:58:52.230Z,19.30
2017-11-11T17:01:18.689Z,19.70
2017-11-11T17:03:45.120Z,19.83
2017-11-11T17:06:11.580Z,19.00
2017-11-11T17:08:38.021Z,21.03
2017-11-11T17:11:04.472Z,18.53
2017-11-11T17:13:31.624Z,16.33
2017-11-11T17:15:58.136Z,18.70
2017-11-11T17:18:24.606Z,15.93
2017-11-11T17:20:51.049Z,19.17
2017-11-11T17:23:17.409Z,23.60
2017-11-11T17:25:43.738Z,17.60
2017-11-11T17:28:10.081Z,18.33
2017-11-11T17:30:36.537Z,18.07
2017-11-11T17:33:02.930Z,15.97
2017-11-11T17:35:29.304Z,21.67
2017-11-11T17:37:55.772Z,26.03
2017-11-11T17:40:22.260Z,23.03
2017-11-11T17:42:48.681Z,20.97
2017-11-11T17:45:15.029Z,19.30
2017-11-11T17:47:42.131Z,21.83
2017-11-11T17:50:08.478Z,23.27
2017-11-11T17:52:34.854Z,21.90
2017-11-11T17:55:01.415Z,23.00
2017-11-11T17:57:28.527Z,21.40
2017-11-11T17:59:54.872Z,21.27
2017-11-11T18:02:21.228Z,24.63
2017-11-11T18:04:47.632Z,24.57
2017-11-11T18:07:13.997Z,25.00
2017-11-11T18:09:40.376Z,25.30
2017-11-11T18:12:08.196Z,26.30
2017-11-11T18:14:34.569Z,25.90
2017-11-11T18:17:01.030Z,27.07
2017-11-11T18:19:27.418Z,30.97
2017-11-11T18:21:53.835Z,32.50
2017-11-11T18:24:20.181Z,33.80
2017-11-11T18:26:47.265Z,34.00
2017-11-11T18:29:13.613Z,31.63
2017-11-11T18:31:40.029Z,26.00
2017-11-11T18:34:06.378Z,29.80
2017-11-11T18:36:32.762Z,29.90
2017-11-11T18:38:59.096Z,30.63
2017-11-11T18:41:25.504Z,32.40
2017-11-11T18:43:52.590Z,29.60
2017-11-11T18:46:18.981Z,31.90
2017-11-11T18:48:45.384Z,29.50
2017-11-11T18:51:11.781Z,35.43
2017-11-11T18:53:38.876Z,29.47
2017-11-11T18:56:05.269Z,27.60
2017-11-11T18:58:32.429Z,28.20
2017-11-11T19:00:59.829Z,28.10
2017-11-11T19:03:26.216Z,26.90
2017-11-11T19:05:52.623Z,25.30
2017-11-11T19:08:19.797Z,31.07
2017-11-11T19:10:46.980Z,31.50
2017-11-11T19:13:13.365Z,28.13
2017-11-11T19:15:39.765Z,29.60
2017-11-11T19:18:06.140Z,27.97
2017-11-11T19:20:33.253Z,33.40
2017-11-11T19:22:59.668Z,32.40
2017-11-11T19:25:26.058Z,29.93
2017-11-11T19:27:52.415Z,34.27
2017-11-11T19:30:18.776Z,34.50
2017-11-11T19:32:45.239Z,33.47
2017-11-11T19:35:11.621Z,31.80
2017-11-11T19:37:38.225Z,34.67
2017-11-11T19:40:05.359Z,37.87
2017-11-11T19:42:31.717Z,34.57
2017-11-11T19:44:58.085Z,38.13
2017-11-11T19:47:24.446Z,37.03
2017-11-11T19:49:50.796Z,39.40
2017-11-11T19:52:17.149Z,35.33
2017-11-11T19:54:44.282Z,36.87
2017-11-11T19:57:11.391Z,42.37
2017-11-11T19:59:37.762Z,38.50
2017-11-11T20:02:04.253Z,42.27
2017-11-11T20:04:30.625Z,43.07
2017-11-11T20:06:57.029Z,41.47
2017-11-11T20:09:23.373Z,40.57
2017-11-11T20:11:49.807Z,45.77
2017-11-11T20:14:16.182Z,46.80
2017-11-11T20:16:42.561Z,45.50
2017-11-11T20:19:09.025Z,56.87
2017-11-11T20:21:35.393Z,57.67
2017-11-11T20:24:01.802Z,56.87
2017-11-11T20:26:28.253Z,51.50
2017-11-11T20:28:54.728Z,52.93
2017-11-11T20:31:21.849Z,57.57
2017-11-11T20:33:48.202Z,57.90
2017-11-11T20:36:14.572Z,55.43
2017-11-11T20:38:40.996Z,52.70
2017-11-11T20:41:08.077Z,51.67
2017-11-11T20:43:34.609Z,54.83
2017-11-11T20:46:01.709Z,52.00
2017-11-11T20:48:28.097Z,51.43
2017-11-11T20:50:54.569Z,50.07
2017-11-11T20:53:20.930Z,53.50
2017-11-11T20:55:47.380Z,54.47
2017-11-11T20:58:14.726Z,47.43
2017-11-11T21:00:41.153Z,49.30
2017-11-11T21:03:07.528Z,53.10
2017-11-11T21:05:33.928Z,51.63
2017-11-11T21:08:00.289Z,48.00
2017-11-11T21:10:27.409Z,48.13
2017-11-11T21:12:53.758Z,46.47
2017-11-11T21:15:20.151Z,42.97
2017-11-11T21:17:46.509Z,41.70
2017-11-11T21:20:12.912Z,41.00
2017-11-11T21:22:40.029Z,41.63
2017-11-11T21:25:06.580Z,41.43
2017-11-11T21:27:32.969Z,44.80
2017-11-11T21:30:00.069Z,44.67
2017-11-11T21:32:26.445Z,44.77
2017-11-11T21:34:52.773Z,39.80
2017-11-11T21:37:19.157Z,41.20
2017-11-11T21:39:45.494Z,42.60
2017-11-11T21:42:12.597Z,40.00
2017-11-11T21:44:38.966Z,42.37
2017-11-11T21:47:05.329Z,37.40
2017-11-11T21:49:32.425Z,34.67
2017-11-11T21:51:58.795Z,35.77
2017-11-11T21:54:25.194Z,39.00
2017-11-11T21:56:52.337Z,38.30
2017-11-11T21:59:18.684Z,38.53
2017-11-11T22:01:45.070Z,38.27
2017-11-11T22:04:11.496Z,38.90
2017-11-11T22:06:38.557Z,38.93
2017-11-11T22:09:05.653Z,39.33
2017-11-11T22:11:32.037Z,36.73
2017-11-11T22:13:58.389Z,38.60
2017-11-11T22:16:26.353Z,40.90
2017-11-11T22:18:53.490Z,39.67
2017-11-11T22:21:19.870Z,36.30
2017-11-11T22:23:46.239Z,37.80
2017-11-11T22:26:12.584Z,37.27
2017-11-11T22:28:38.955Z,34.43
2017-11-11T22:31:05.290Z,35.17
2017-11-11T22:33:31.673Z,37.77
2017-11-11T22:35:58.050Z,36.67
2017-11-11T22:38:24.361Z,36.57
2017-11-11T22:40:51.498Z,36.33
2017-11-11T22:43:17.968Z,36.27
2017-11-11T22:45:44.377Z,39.10
2017-11-11T22:48:10.721Z,43.70
2017-11-11T22:50:37.097Z,49.67
2017-11-11T22:53:03.439Z,55.43
2017-11-11T22:55:30.545Z,42.23
2017-11-11T22:57:56.971Z,41.20
2017-11-11T23:00:35.730Z,40.47
2017-11-11T23:03:02.082Z,34.50
2017-11-11T23:05:28.586Z,37.37
2017-11-11T23:07:54.937Z,39.37
2017-11-11T23:10:21.275Z,38.10
2017-11-11T23:12:47.620Z,39.00
2017-11-11T23:15:14.081Z,41.00
2017-11-11T23:17:41.261Z,40.67
2017-11-11T23:20:07.594Z,33.30
2017-11-11T23:22:34.013Z,43.20
2017-11-11T23:25:00.331Z,39.50
2017-11-11T23:27:26.677Z,43.80
2017-11-11T23:29:53.012Z,40.70
2017-11-11T23:32:20.142Z,43.07
2017-11-11T23:34:46.633Z,39.60
2017-11-11T23:37:12.977Z,45.63
2017-11-11T23:39:39.351Z,49.77
2017-11-11T23:42:06.429Z,46.77
2017-11-11T23:44:32.794Z,45.47
2017-11-11T23:46:59.109Z,54.10
2017-11-11T23:49:25.483Z,55.27
2017-11-11T23:51:51.815Z,51.60
2017-11-11T23:54:18.190Z,47.90
2017-11-11T23:56:44.519Z,48.07
2017-11-11T23:59:10.925Z,48.17
